sensor_id;sensor_type;location;lat;lon;timestamp;P1;durP1;ratioP1;P2;durP2;ratioP2
17564;SDS011;62994;52.126;5.596;2022-11-18T00:00:37;4.10;;;2.30;;
17564;SDS011;62994;52.126;5.596;2022-11-18T00:03:03;2.40;;;2.20;;
17564;SDS011;62994;52.126;5.596;2022-11-18T00:05:30;4.00;;;2.15;;
17564;SDS011;62994;52.126;5.596;2022-11-18T00:07:57;2.53;;;2.33;;
17564;SDS011;62994;52.126;5.596;2022-11-18T00:10:24;3.05;;;2.40;;
17564;SDS011;62994;52.126;5.596;2022-11-18T00:12:51;2.47;;;1.85;;
17564;SDS011;62994;52.126;5.596;2022-11-18T00:15:37;2.33;;;2.10;;
17564;SDS011;62994;52.126;5.596;2022-11-18T00:18:04;4.75;;;2.47;;
17564;SDS011;62994;52.126;5.596;2022-11-18T00:20:31;2.45;;;2.25;;
17564;SDS011;62994;52.126;5.596;2022-11-18T00:22:58;2.70;;;2.50;;
17564;SDS011;62994;52.126;5.596;2022-11-18T00:25:25;6.43;;;2.53;;
17564;SDS011;62994;52.126;5.596;2022-11-18T00:27:53;6.65;;;2.22;;
17564;SDS011;62994;52.126;5.596;2022-11-18T00:30:20;4.38;;;2.55;;
17564;SDS011;62994;52.126;5.596;2022-11-18T00:32:48;3.22;;;2.17;;
17564;SDS011;62994;52.126;5.596;2022-11-18T00:35:15;7.50;;;2.55;;
17564;SDS011;62994;52.126;5.596;2022-11-18T00:37:42;2.53;;;2.20;;
17564;SDS011;62994;52.126;5.596;2022-11-18T00:40:09;5.47;;;2.47;;
17564;SDS011;62994;52.126;5.596;2022-11-18T00:42:36;3.08;;;2.58;;
17564;SDS011;62994;52.126;5.596;2022-11-18T00:45:18;2.45;;;2.28;;
17564;SDS011;62994;52.126;5.596;2022-11-18T00:47:45;2.42;;;2.22;;
17564;SDS011;62994;52.126;5.596;2022-11-18T00:50:14;2.90;;;2.20;;
17564;SDS011;62994;52.126;5.596;2022-11-18T00:52:41;3.45;;;2.53;;
17564;SDS011;62994;52.126;5.596;2022-11-18T00:55:08;2.55;;;2.30;;
17564;SDS011;62994;52.126;5.596;2022-11-18T00:57:35;3.65;;;2.60;;
17564;SDS011;62994;52.126;5.596;2022-11-18T01:00:02;2.35;;;2.15;;
17564;SDS011;62994;52.126;5.596;2022-11-18T01:02:30;3.83;;;2.17;;
17564;SDS011;62994;52.126;5.596;2022-11-18T01:04:58;5.70;;;2.75;;
17564;SDS011;62994;52.126;5.596;2022-11-18T01:07:25;3.22;;;2.60;;
17564;SDS011;62994;52.126;5.596;2022-11-18T01:09:52;3.97;;;2.30;;
17564;SDS011;62994;52.126;5.596;2022-11-18T01:12:20;3.35;;;2.58;;
17564;SDS011;62994;52.126;5.596;2022-11-18T01:15:04;2.50;;;2.20;;
17564;SDS011;62994;52.126;5.596;2022-11-18T01:17:32;3.08;;;2.53;;
17564;SDS011;62994;52.126;5.596;2022-11-18T01:20:00;4.97;;;2.53;;
17564;SDS011;62994;52.126;5.596;2022-11-18T01:22:27;4.68;;;2.25;;
17564;SDS011;62994;52.126;5.596;2022-11-18T01:24:54;2.65;;;2.35;;
17564;SDS011;62994;52.126;5.596;2022-11-18T01:27:21;4.57;;;2.28;;
17564;SDS011;62994;52.126;5.596;2022-11-18T01:29:48;3.00;;;2.22;;
17564;SDS011;62994;52.126;5.596;2022-11-18T01:32:15;4.65;;;2.08;;
17564;SDS011;62994;52.126;5.596;2022-11-18T01:34:41;3.38;;;2.30;;
17564;SDS011;62994;52.126;5.596;2022-11-18T01:37:10;3.05;;;2.30;;
17564;SDS011;62994;52.126;5.596;2022-11-18T01:39:37;2.20;;;2.00;;
17564;SDS011;62994;52.126;5.596;2022-11-18T01:42:04;3.17;;;2.33;;
17564;SDS011;62994;52.126;5.596;2022-11-18T01:44:55;3.15;;;2.40;;
17564;SDS011;62994;52.126;5.596;2022-11-18T01:47:30;2.60;;;2.40;;
17564;SDS011;62994;52.126;5.596;2022-11-18T01:50:03;3.20;;;2.30;;
17564;SDS011;62994;52.126;5.596;2022-11-18T01:52:33;3.53;;;2.88;;
17564;SDS011;62994;52.126;5.596;2022-11-18T01:55:02;3.10;;;2.80;;
17564;SDS011;62994;52.126;5.596;2022-11-18T01:57:32;3.38;;;2.17;;
17564;SDS011;62994;52.126;5.596;2022-11-18T02:00:00;4.85;;;3.15;;
17564;SDS011;62994;52.126;5.596;2022-11-18T02:02:29;2.22;;;2.13;;
17564;SDS011;62994;52.126;5.596;2022-11-18T02:04:58;3.40;;;2.65;;
17564;SDS011;62994;52.126;5.596;2022-11-18T02:07:27;4.25;;;2.78;;
17564;SDS011;62994;52.126;5.596;2022-11-18T02:09:56;4.93;;;2.50;;
17564;SDS011;62994;52.126;5.596;2022-11-18T02:12:25;6.25;;;2.95;;
17564;SDS011;62994;52.126;5.596;2022-11-18T02:14:52;4.60;;;2.70;;
17564;SDS011;62994;52.126;5.596;2022-11-18T02:17:22;2.72;;;2.22;;
17564;SDS011;62994;52.126;5.596;2022-11-18T02:23:03;7.25;;;2.55;;
17564;SDS011;62994;52.126;5.596;2022-11-18T02:25:55;7.65;;;3.08;;
17564;SDS011;62994;52.126;5.596;2022-11-18T02:28:54;3.58;;;2.13;;
17564;SDS011;62994;52.126;5.596;2022-11-18T02:31:30;5.07;;;2.70;;
17564;SDS011;62994;52.126;5.596;2022-11-18T02:34:01;5.18;;;2.88;;
17564;SDS011;62994;52.126;5.596;2022-11-18T02:36:35;11.35;;;2.58;;
17564;SDS011;62994;52.126;5.596;2022-11-18T02:39:07;2.72;;;2.53;;
17564;SDS011;62994;52.126;5.596;2022-11-18T02:41:38;2.45;;;2.30;;
17564;SDS011;62994;52.126;5.596;2022-11-18T02:44:11;2.85;;;2.65;;
17564;SDS011;62994;52.126;5.596;2022-11-18T02:46:41;6.15;;;2.42;;
17564;SDS011;62994;52.126;5.596;2022-11-18T02:49:15;3.17;;;2.88;;
17564;SDS011;62994;52.126;5.596;2022-11-18T02:51:46;3.30;;;2.67;;
17564;SDS011;62994;52.126;5.596;2022-11-18T02:54:15;2.90;;;2.70;;
17564;SDS011;62994;52.126;5.596;2022-11-18T02:56:45;4.88;;;2.95;;
17564;SDS011;62994;52.126;5.596;2022-11-18T02:59:17;3.63;;;3.00;;
17564;SDS011;62994;52.126;5.596;2022-11-18T03:01:45;2.88;;;2.28;;
17564;SDS011;62994;52.126;5.596;2022-11-18T03:04:12;3.08;;;2.47;;
17564;SDS011;62994;52.126;5.596;2022-11-18T03:06:41;2.63;;;2.42;;
17564;SDS011;62994;52.126;5.596;2022-11-18T03:09:13;4.05;;;2.92;;
17564;SDS011;62994;52.126;5.596;2022-11-18T03:11:58;3.60;;;3.08;;
17564;SDS011;62994;52.126;5.596;2022-11-18T03:14:34;2.85;;;2.65;;
17564;SDS011;62994;52.126;5.596;2022-11-18T03:17:10;3.72;;;2.78;;
17564;SDS011;62994;52.126;5.596;2022-11-18T03:19:53;2.45;;;2.25;;
17564;SDS011;62994;52.126;5.596;2022-11-18T03:22:31;3.97;;;2.70;;
17564;SDS011;62994;52.126;5.596;2022-11-18T03:25:03;4.45;;;2.70;;
17564;SDS011;62994;52.126;5.596;2022-11-18T03:27:35;2.85;;;2.55;;
17564;SDS011;62994;52.126;5.596;2022-11-18T03:30:09;3.92;;;2.65;;
17564;SDS011;62994;52.126;5.596;2022-11-18T03:32:41;2.55;;;2.35;;
17564;SDS011;62994;52.126;5.596;2022-11-18T03:35:15;2.92;;;2.28;;
17564;SDS011;62994;52.126;5.596;2022-11-18T03:37:46;4.18;;;2.30;;
17564;SDS011;62994;52.126;5.596;2022-11-18T03:40:18;3.50;;;2.50;;
17564;SDS011;62994;52.126;5.596;2022-11-18T03:42:48;3.22;;;2.85;;
17564;SDS011;62994;52.126;5.596;2022-11-18T03:45:26;4.07;;;2.80;;
17564;SDS011;62994;52.126;5.596;2022-11-18T03:47:57;3.13;;;2.58;;
17564;SDS011;62994;52.126;5.596;2022-11-18T03:50:29;2.60;;;2.40;;
17564;SDS011;62994;52.126;5.596;2022-11-18T03:52:58;3.10;;;2.80;;
17564;SDS011;62994;52.126;5.596;2022-11-18T03:55:28;6.00;;;3.25;;
17564;SDS011;62994;52.126;5.596;2022-11-18T03:58:02;3.38;;;3.08;;
17564;SDS011;62994;52.126;5.596;2022-11-18T04:00:35;4.22;;;2.47;;
17564;SDS011;62994;52.126;5.596;2022-11-18T04:03:05;4.63;;;2.55;;
17564;SDS011;62994;52.126;5.596;2022-11-18T04:05:35;2.58;;;2.35;;
17564;SDS011;62994;52.126;5.596;2022-11-18T04:08:05;3.58;;;2.60;;
17564;SDS011;62994;52.126;5.596;2022-11-18T04:10:36;3.28;;;2.65;;
17564;SDS011;62994;52.126;5.596;2022-11-18T04:13:08;3.28;;;2.38;;
17564;SDS011;62994;52.126;5.596;2022-11-18T04:15:42;3.40;;;2.47;;
17564;SDS011;62994;52.126;5.596;2022-11-18T04:18:09;4.38;;;2.75;;
17564;SDS011;62994;52.126;5.596;2022-11-18T04:20:36;3.60;;;2.35;;
17564;SDS011;62994;52.126;5.596;2022-11-18T04:23:04;5.20;;;2.70;;
17564;SDS011;62994;52.126;5.596;2022-11-18T04:25:32;3.00;;;2.35;;
17564;SDS011;62994;52.126;5.596;2022-11-18T04:27:59;3.55;;;2.95;;
17564;SDS011;62994;52.126;5.596;2022-11-18T04:30:26;5.00;;;2.90;;
17564;SDS011;62994;52.126;5.596;2022-11-18T04:32:59;2.72;;;2.53;;
17564;SDS011;62994;52.126;5.596;2022-11-18T04:35:26;4.07;;;2.50;;
17564;SDS011;62994;52.126;5.596;2022-11-18T04:37:53;3.35;;;2.63;;
17564;SDS011;62994;52.126;5.596;2022-11-18T04:40:20;4.00;;;2.70;;
17564;SDS011;62994;52.126;5.596;2022-11-18T04:42:47;3.03;;;2.38;;
17564;SDS011;62994;52.126;5.596;2022-11-18T04:45:14;3.20;;;2.83;;
17564;SDS011;62994;52.126;5.596;2022-11-18T04:47:46;2.78;;;2.65;;
17564;SDS011;62994;52.126;5.596;2022-11-18T04:50:14;5.20;;;2.35;;
17564;SDS011;62994;52.126;5.596;2022-11-18T04:52:41;2.80;;;2.58;;
17564;SDS011;62994;52.126;5.596;2022-11-18T04:55:08;2.33;;;2.15;;
17564;SDS011;62994;52.126;5.596;2022-11-18T04:57:35;3.10;;;2.90;;
17564;SDS011;62994;52.126;5.596;2022-11-18T05:00:02;4.18;;;2.50;;
17564;SDS011;62994;52.126;5.596;2022-11-18T05:02:30;3.10;;;2.90;;
17564;SDS011;62994;52.126;5.596;2022-11-18T05:05:03;4.95;;;2.67;;
17564;SDS011;62994;52.126;5.596;2022-11-18T05:07:32;5.18;;;2.92;;
17564;SDS011;62994;52.126;5.596;2022-11-18T05:09:59;6.00;;;2.90;;
17564;SDS011;62994;52.126;5.596;2022-11-18T05:12:27;3.83;;;2.97;;
17564;SDS011;62994;52.126;5.596;2022-11-18T05:15:11;3.13;;;2.88;;
17564;SDS011;62994;52.126;5.596;2022-11-18T05:17:38;3.38;;;2.30;;
17564;SDS011;62994;52.126;5.596;2022-11-18T05:20:06;4.07;;;2.88;;
17564;SDS011;62994;52.126;5.596;2022-11-18T05:22:35;3.85;;;2.88;;
17564;SDS011;62994;52.126;5.596;2022-11-18T05:25:02;5.80;;;2.58;;
17564;SDS011;62994;52.126;5.596;2022-11-18T05:27:29;2.78;;;2.50;;
17564;SDS011;62994;52.126;5.596;2022-11-18T05:29:56;5.30;;;2.70;;
17564;SDS011;62994;52.126;5.596;2022-11-18T05:32:23;3.35;;;3.03;;
17564;SDS011;62994;52.126;5.596;2022-11-18T05:34:50;3.10;;;2.85;;
17564;SDS011;62994;52.126;5.596;2022-11-18T05:37:17;4.88;;;2.85;;
17564;SDS011;62994;52.126;5.596;2022-11-18T05:39:45;4.07;;;2.85;;
17564;SDS011;62994;52.126;5.596;2022-11-18T05:42:12;2.92;;;2.72;;
17564;SDS011;62994;52.126;5.596;2022-11-18T05:44:57;4.22;;;3.00;;
17564;SDS011;62994;52.126;5.596;2022-11-18T05:47:34;5.70;;;3.30;;
17564;SDS011;62994;52.126;5.596;2022-11-18T05:50:21;3.20;;;2.90;;
17564;SDS011;62994;52.126;5.596;2022-11-18T05:52:47;4.35;;;3.03;;
17564;SDS011;62994;52.126;5.596;2022-11-18T05:55:16;5.07;;;3.00;;
17564;SDS011;62994;52.126;5.596;2022-11-18T05:57:44;4.78;;;3.28;;
17564;SDS011;62994;52.126;5.596;2022-11-18T06:00:12;4.07;;;3.30;;
17564;SDS011;62994;52.126;5.596;2022-11-18T06:02:40;3.38;;;2.92;;
17564;SDS011;62994;52.126;5.596;2022-11-18T06:05:08;4.65;;;3.25;;
17564;SDS011;62994;52.126;5.596;2022-11-18T06:07:37;3.53;;;2.85;;
17564;SDS011;62994;52.126;5.596;2022-11-18T06:10:10;4.05;;;3.10;;
17564;SDS011;62994;52.126;5.596;2022-11-18T06:12:43;14.95;;;3.47;;
17564;SDS011;62994;52.126;5.596;2022-11-18T06:15:13;7.90;;;3.20;;
17564;SDS011;62994;52.126;5.596;2022-11-18T06:17:44;3.50;;;3.20;;
17564;SDS011;62994;52.126;5.596;2022-11-18T06:20:15;3.88;;;3.25;;
17564;SDS011;62994;52.126;5.596;2022-11-18T06:22:49;9.35;;;3.45;;
17564;SDS011;62994;52.126;5.596;2022-11-18T06:25:19;3.60;;;3.30;;
17564;SDS011;62994;52.126;5.596;2022-11-18T06:27:48;5.00;;;2.92;;
17564;SDS011;62994;52.126;5.596;2022-11-18T06:30:16;3.30;;;3.05;;
17564;SDS011;62994;52.126;5.596;2022-11-18T06:32:43;6.05;;;2.92;;
17564;SDS011;62994;52.126;5.596;2022-11-18T06:35:10;3.10;;;2.75;;
17564;SDS011;62994;52.126;5.596;2022-11-18T06:37:37;3.95;;;3.55;;
17564;SDS011;62994;52.126;5.596;2022-11-18T06:40:04;6.32;;;3.63;;
17564;SDS011;62994;52.126;5.596;2022-11-18T06:42:35;3.42;;;3.20;;
17564;SDS011;62994;52.126;5.596;2022-11-18T06:45:21;6.60;;;3.75;;
17564;SDS011;62994;52.126;5.596;2022-11-18T06:47:47;3.65;;;3.30;;
17564;SDS011;62994;52.126;5.596;2022-11-18T06:50:14;7.05;;;3.92;;
17564;SDS011;62994;52.126;5.596;2022-11-18T06:52:41;5.95;;;3.45;;
17564;SDS011;62994;52.126;5.596;2022-11-18T06:55:08;5.43;;;3.60;;
17564;SDS011;62994;52.126;5.596;2022-11-18T06:57:35;3.95;;;3.60;;
17564;SDS011;62994;52.126;5.596;2022-11-18T07:00:02;5.47;;;3.55;;
17564;SDS011;62994;52.126;5.596;2022-11-18T07:02:31;7.35;;;3.75;;
17564;SDS011;62994;52.126;5.596;2022-11-18T07:05:01;3.45;;;3.15;;
17564;SDS011;62994;52.126;5.596;2022-11-18T07:07:28;5.75;;;3.17;;
17564;SDS011;62994;52.126;5.596;2022-11-18T07:09:55;5.00;;;3.17;;
17564;SDS011;62994;52.126;5.596;2022-11-18T07:12:22;3.47;;;3.28;;
17564;SDS011;62994;52.126;5.596;2022-11-18T07:14:53;5.60;;;3.63;;
17564;SDS011;62994;52.126;5.596;2022-11-18T07:17:20;6.05;;;3.60;;
17564;SDS011;62994;52.126;5.596;2022-11-18T07:19:49;7.07;;;3.30;;
17564;SDS011;62994;52.126;5.596;2022-11-18T07:22:16;4.13;;;3.83;;
17564;SDS011;62994;52.126;5.596;2022-11-18T07:24:43;3.90;;;3.60;;
17564;SDS011;62994;52.126;5.596;2022-11-18T07:27:10;4.38;;;3.53;;
17564;SDS011;62994;52.126;5.596;2022-11-18T07:29:36;8.35;;;4.38;;
17564;SDS011;62994;52.126;5.596;2022-11-18T07:32:04;8.88;;;4.15;;
17564;SDS011;62994;52.126;5.596;2022-11-18T07:34:31;3.65;;;3.35;;
17564;SDS011;62994;52.126;5.596;2022-11-18T07:37:00;4.00;;;3.72;;
17564;SDS011;62994;52.126;5.596;2022-11-18T07:39:26;3.88;;;3.58;;
17564;SDS011;62994;52.126;5.596;2022-11-18T07:41:54;6.13;;;3.78;;
17564;SDS011;62994;52.126;5.596;2022-11-18T07:44:21;4.80;;;4.30;;
17564;SDS011;62994;52.126;5.596;2022-11-18T07:46:48;4.05;;;3.67;;
17564;SDS011;62994;52.126;5.596;2022-11-18T07:49:15;4.38;;;3.85;;
17564;SDS011;62994;52.126;5.596;2022-11-18T07:51:42;5.22;;;4.00;;
17564;SDS011;62994;52.126;5.596;2022-11-18T07:54:11;6.47;;;4.05;;
17564;SDS011;62994;52.126;5.596;2022-11-18T07:56:40;4.55;;;3.05;;
17564;SDS011;62994;52.126;5.596;2022-11-18T07:59:07;4.20;;;3.72;;
17564;SDS011;62994;52.126;5.596;2022-11-18T08:01:34;6.85;;;3.75;;
17564;SDS011;62994;52.126;5.596;2022-11-18T08:04:05;3.88;;;3.58;;
17564;SDS011;62994;52.126;5.596;2022-11-18T08:06:34;5.15;;;3.85;;
17564;SDS011;62994;52.126;5.596;2022-11-18T08:09:02;4.28;;;3.60;;
17564;SDS011;62994;52.126;5.596;2022-11-18T08:11:31;7.95;;;3.97;;
17564;SDS011;62994;52.126;5.596;2022-11-18T08:13:58;4.60;;;4.15;;
17564;SDS011;62994;52.126;5.596;2022-11-18T08:16:30;3.97;;;3.70;;
17564;SDS011;62994;52.126;5.596;2022-11-18T08:18:57;4.05;;;3.38;;
17564;SDS011;62994;52.126;5.596;2022-11-18T08:21:24;4.68;;;3.85;;
17564;SDS011;62994;52.126;5.596;2022-11-18T08:23:52;8.50;;;4.00;;
17564;SDS011;62994;52.126;5.596;2022-11-18T08:26:25;4.90;;;3.67;;
17564;SDS011;62994;52.126;5.596;2022-11-18T08:28:55;4.88;;;3.35;;
17564;SDS011;62994;52.126;5.596;2022-11-18T08:31:23;6.60;;;3.88;;
17564;SDS011;62994;52.126;5.596;2022-11-18T08:33:54;9.77;;;4.25;;
17564;SDS011;62994;52.126;5.596;2022-11-18T08:36:22;4.25;;;3.85;;
17564;SDS011;62994;52.126;5.596;2022-11-18T08:38:51;3.45;;;3.20;;
17564;SDS011;62994;52.126;5.596;2022-11-18T08:41:20;4.88;;;4.05;;
17564;SDS011;62994;52.126;5.596;2022-11-18T08:43:54;5.90;;;3.60;;
17564;SDS011;62994;52.126;5.596;2022-11-18T08:46:21;4.05;;;3.65;;
17564;SDS011;62994;52.126;5.596;2022-11-18T08:48:53;8.52;;;3.70;;
17564;SDS011;62994;52.126;5.596;2022-11-18T08:51:20;6.10;;;4.07;;
17564;SDS011;62994;52.126;5.596;2022-11-18T08:53:47;3.33;;;3.05;;
17564;SDS011;62994;52.126;5.596;2022-11-18T08:56:15;8.93;;;3.33;;
17564;SDS011;62994;52.126;5.596;2022-11-18T08:58:43;4.88;;;3.75;;
17564;SDS011;62994;52.126;5.596;2022-11-18T09:01:12;5.18;;;3.65;;
17564;SDS011;62994;52.126;5.596;2022-11-18T09:03:39;4.00;;;3.70;;
17564;SDS011;62994;52.126;5.596;2022-11-18T09:06:06;4.93;;;3.65;;
17564;SDS011;62994;52.126;5.596;2022-11-18T09:08:35;5.60;;;3.55;;
17564;SDS011;62994;52.126;5.596;2022-11-18T09:11:06;3.88;;;3.60;;
17564;SDS011;62994;52.126;5.596;2022-11-18T09:13:34;5.43;;;3.63;;
17564;SDS011;62994;52.126;5.596;2022-11-18T09:16:02;6.07;;;3.40;;
17564;SDS011;62994;52.126;5.596;2022-11-18T09:18:31;3.95;;;3.65;;
17564;SDS011;62994;52.126;5.596;2022-11-18T09:20:58;3.75;;;3.40;;
17564;SDS011;62994;52.126;5.596;2022-11-18T09:23:27;5.68;;;4.10;;
17564;SDS011;62994;52.126;5.596;2022-11-18T09:25:57;4.18;;;3.40;;
17564;SDS011;62994;52.126;5.596;2022-11-18T09:28:25;6.15;;;3.15;;
17564;SDS011;62994;52.126;5.596;2022-11-18T09:30:54;4.43;;;3.38;;
17564;SDS011;62994;52.126;5.596;2022-11-18T09:33:22;6.63;;;3.45;;
17564;SDS011;62994;52.126;5.596;2022-11-18T09:35:50;3.85;;;3.55;;
17564;SDS011;62994;52.126;5.596;2022-11-18T09:38:17;3.97;;;3.58;;
17564;SDS011;62994;52.126;5.596;2022-11-18T09:40:47;3.83;;;3.50;;
17564;SDS011;62994;52.126;5.596;2022-11-18T09:43:34;3.60;;;3.17;;
17564;SDS011;62994;52.126;5.596;2022-11-18T09:46:13;5.82;;;3.50;;
17564;SDS011;62994;52.126;5.596;2022-11-18T09:49:01;4.45;;;3.47;;
17564;SDS011;62994;52.126;5.596;2022-11-18T09:51:42;7.70;;;3.97;;
17564;SDS011;62994;52.126;5.596;2022-11-18T09:54:19;5.05;;;3.40;;
17564;SDS011;62994;52.126;5.596;2022-11-18T09:56:51;4.47;;;3.38;;
17564;SDS011;62994;52.126;5.596;2022-11-18T09:59:26;4.22;;;3.83;;
17564;SDS011;62994;52.126;5.596;2022-11-18T10:02:01;8.43;;;3.22;;
17564;SDS011;62994;52.126;5.596;2022-11-18T10:04:42;3.95;;;3.65;;
17564;SDS011;62994;52.126;5.596;2022-11-18T10:07:12;4.10;;;3.63;;
17564;SDS011;62994;52.126;5.596;2022-11-18T10:09:46;4.30;;;3.75;;
17564;SDS011;62994;52.126;5.596;2022-11-18T10:12:18;6.75;;;3.60;;
17564;SDS011;62994;52.126;5.596;2022-11-18T10:14:56;4.10;;;3.33;;
17564;SDS011;62994;52.126;5.596;2022-11-18T10:17:36;3.75;;;3.33;;
17564;SDS011;62994;52.126;5.596;2022-11-18T10:20:25;3.55;;;3.25;;
17564;SDS011;62994;52.126;5.596;2022-11-18T10:23:02;4.78;;;3.17;;
17564;SDS011;62994;52.126;5.596;2022-11-18T10:25:36;6.18;;;3.83;;
17564;SDS011;62994;52.126;5.596;2022-11-18T10:28:13;4.10;;;3.65;;
17564;SDS011;62994;52.126;5.596;2022-11-18T10:30:42;4.68;;;3.08;;
17564;SDS011;62994;52.126;5.596;2022-11-18T10:33:16;6.95;;;3.25;;
17564;SDS011;62994;52.126;5.596;2022-11-18T10:35:51;3.38;;;2.63;;
17564;SDS011;62994;52.126;5.596;2022-11-18T10:38:38;3.83;;;3.53;;
17564;SDS011;62994;52.126;5.596;2022-11-18T10:41:07;3.55;;;3.25;;
17564;SDS011;62994;52.126;5.596;2022-11-18T10:43:42;5.05;;;3.22;;
17564;SDS011;62994;52.126;5.596;2022-11-18T10:46:16;7.45;;;3.45;;
17564;SDS011;62994;52.126;5.596;2022-11-18T10:48:57;3.55;;;3.25;;
17564;SDS011;62994;52.126;5.596;2022-11-18T10:51:38;3.75;;;2.80;;
17564;SDS011;62994;52.126;5.596;2022-11-18T10:54:08;4.20;;;3.20;;
17564;SDS011;62994;52.126;5.596;2022-11-18T10:56:44;7.15;;;3.65;;
17564;SDS011;62994;52.126;5.596;2022-11-18T10:59:19;3.75;;;3.20;;
17564;SDS011;62994;52.126;5.596;2022-11-18T11:02:00;4.10;;;3.00;;
17564;SDS011;62994;52.126;5.596;2022-11-18T11:04:36;3.25;;;2.80;;
17564;SDS011;62994;52.126;5.596;2022-11-18T11:07:13;7.70;;;3.95;;
17564;SDS011;62994;52.126;5.596;2022-11-18T11:09:43;3.30;;;2.97;;
17564;SDS011;62994;52.126;5.596;2022-11-18T11:12:12;3.83;;;3.10;;
17564;SDS011;62994;52.126;5.596;2022-11-18T11:14:42;3.60;;;3.25;;
17564;SDS011;62994;52.126;5.596;2022-11-18T11:17:16;5.57;;;2.92;;
17564;SDS011;62994;52.126;5.596;2022-11-18T11:19:48;3.92;;;3.20;;
17564;SDS011;62994;52.126;5.596;2022-11-18T11:22:17;3.58;;;3.28;;
17564;SDS011;62994;52.126;5.596;2022-11-18T11:24:46;7.10;;;3.22;;
17564;SDS011;62994;52.126;5.596;2022-11-18T11:27:16;3.00;;;2.80;;
17564;SDS011;62994;52.126;5.596;2022-11-18T11:30:01;3.65;;;3.33;;
17564;SDS011;62994;52.126;5.596;2022-11-18T11:32:34;9.90;;;3.63;;
17564;SDS011;62994;52.126;5.596;2022-11-18T11:35:09;3.92;;;3.20;;
17564;SDS011;62994;52.126;5.596;2022-11-18T11:37:46;5.95;;;3.15;;
17564;SDS011;62994;52.126;5.596;2022-11-18T11:40:21;3.42;;;2.95;;
17564;SDS011;62994;52.126;5.596;2022-11-18T11:43:00;5.10;;;2.80;;
17564;SDS011;62994;52.126;5.596;2022-11-18T11:45:37;4.00;;;3.50;;
17564;SDS011;62994;52.126;5.596;2022-11-18T11:48:17;2.88;;;2.58;;
17564;SDS011;62994;52.126;5.596;2022-11-18T11:50:57;3.70;;;3.17;;
17564;SDS011;62994;52.126;5.596;2022-11-18T11:53:37;4.97;;;3.28;;
17564;SDS011;62994;52.126;5.596;2022-11-18T11:56:29;6.47;;;3.13;;
17564;SDS011;62994;52.126;5.596;2022-11-18T11:59:14;12.18;;;3.08;;
17564;SDS011;62994;52.126;5.596;2022-11-18T12:01:57;4.13;;;2.95;;
17564;SDS011;62994;52.126;5.596;2022-11-18T12:04:59;4.35;;;3.40;;
17564;SDS011;62994;52.126;5.596;2022-11-18T12:07:38;7.03;;;2.88;;
17564;SDS011;62994;52.126;5.596;2022-11-18T12:10:17;3.70;;;3.35;;
17564;SDS011;62994;52.126;5.596;2022-11-18T12:13:01;3.45;;;3.15;;
17564;SDS011;62994;52.126;5.596;2022-11-18T12:15:45;3.97;;;3.42;;
17564;SDS011;62994;52.126;5.596;2022-11-18T12:18:20;7.57;;;3.47;;
17564;SDS011;62994;52.126;5.596;2022-11-18T12:20:51;6.07;;;3.80;;
17564;SDS011;62994;52.126;5.596;2022-11-18T12:23:19;3.63;;;3.17;;
17564;SDS011;62994;52.126;5.596;2022-11-18T12:25:52;3.78;;;3.38;;
17564;SDS011;62994;52.126;5.596;2022-11-18T12:28:27;8.10;;;3.05;;
17564;SDS011;62994;52.126;5.596;2022-11-18T12:33:58;3.85;;;3.20;;
17564;SDS011;62994;52.126;5.596;2022-11-18T12:36:37;4.35;;;3.53;;
17564;SDS011;62994;52.126;5.596;2022-11-18T12:48:33;4.22;;;3.42;;
17564;SDS011;62994;52.126;5.596;2022-11-18T12:56:58;4.80;;;4.13;;
17564;SDS011;62994;52.126;5.596;2022-11-18T12:59:33;4.05;;;3.65;;
17564;SDS011;62994;52.126;5.596;2022-11-18T13:02:16;7.38;;;3.53;;
17564;SDS011;62994;52.126;5.596;2022-11-18T13:05:00;5.20;;;4.05;;
17564;SDS011;62994;52.126;5.596;2022-11-18T13:07:30;6.57;;;3.83;;
17564;SDS011;62994;52.126;5.596;2022-11-18T13:10:19;4.18;;;3.92;;
17564;SDS011;62994;52.126;5.596;2022-11-18T13:12:48;4.88;;;4.13;;
17564;SDS011;62994;52.126;5.596;2022-11-18T13:15:16;4.25;;;3.90;;
17564;SDS011;62994;52.126;5.596;2022-11-18T13:18:10;4.70;;;4.30;;
17564;SDS011;62994;52.126;5.596;2022-11-18T13:20:53;6.60;;;4.60;;
17564;SDS011;62994;52.126;5.596;2022-11-18T13:23:31;5.25;;;4.13;;
17564;SDS011;62994;52.126;5.596;2022-11-18T13:26:18;5.60;;;4.20;;
17564;SDS011;62994;52.126;5.596;2022-11-18T13:31:54;5.18;;;4.68;;
17564;SDS011;62994;52.126;5.596;2022-11-18T13:34:30;5.38;;;4.75;;
17564;SDS011;62994;52.126;5.596;2022-11-18T13:37:11;4.82;;;4.40;;
17564;SDS011;62994;52.126;5.596;2022-11-18T13:39:43;5.70;;;5.20;;
17564;SDS011;62994;52.126;5.596;2022-11-18T13:42:17;10.05;;;4.80;;
17564;SDS011;62994;52.126;5.596;2022-11-18T13:44:50;6.38;;;4.22;;
17564;SDS011;62994;52.126;5.596;2022-11-18T13:47:23;4.63;;;3.72;;
17564;SDS011;62994;52.126;5.596;2022-11-18T13:49:56;5.07;;;3.85;;
17564;SDS011;62994;52.126;5.596;2022-11-18T13:52:29;4.50;;;4.00;;
17564;SDS011;62994;52.126;5.596;2022-11-18T13:54:59;9.77;;;3.83;;
17564;SDS011;62994;52.126;5.596;2022-11-18T13:57:32;4.40;;;3.80;;
17564;SDS011;62994;52.126;5.596;2022-11-18T14:00:05;4.15;;;3.67;;
17564;SDS011;62994;52.126;5.596;2022-11-18T14:02:44;6.72;;;4.22;;
17564;SDS011;62994;52.126;5.596;2022-11-18T14:05:21;4.43;;;3.97;;
17564;SDS011;62994;52.126;5.596;2022-11-18T14:07:54;4.22;;;3.83;;
17564;SDS011;62994;52.126;5.596;2022-11-18T14:10:29;6.18;;;4.60;;
17564;SDS011;62994;52.126;5.596;2022-11-18T14:12:58;5.40;;;4.05;;
17564;SDS011;62994;52.126;5.596;2022-11-18T14:15:34;3.92;;;3.55;;
17564;SDS011;62994;52.126;5.596;2022-11-18T14:20:50;4.60;;;4.30;;
17564;SDS011;62994;52.126;5.596;2022-11-18T14:23:27;6.40;;;4.00;;
17564;SDS011;62994;52.126;5.596;2022-11-18T14:26:04;6.82;;;4.53;;
17564;SDS011;62994;52.126;5.596;2022-11-18T14:28:39;5.38;;;4.90;;
17564;SDS011;62994;52.126;5.596;2022-11-18T14:31:31;4.60;;;4.30;;
17564;SDS011;62994;52.126;5.596;2022-11-18T14:34:15;5.43;;;4.30;;
17564;SDS011;62994;52.126;5.596;2022-11-18T14:36:59;6.30;;;3.90;;
17564;SDS011;62994;52.126;5.596;2022-11-18T14:39:53;7.55;;;4.40;;
17564;SDS011;62994;52.126;5.596;2022-11-18T14:42:37;6.35;;;4.75;;
17564;SDS011;62994;52.126;5.596;2022-11-18T14:45:22;5.13;;;4.70;;
17564;SDS011;62994;52.126;5.596;2022-11-18T14:48:03;6.05;;;4.85;;
17564;SDS011;62994;52.126;5.596;2022-11-18T14:50:30;6.53;;;4.10;;
17564;SDS011;62994;52.126;5.596;2022-11-18T14:53:01;6.80;;;4.32;;
17564;SDS011;62994;52.126;5.596;2022-11-18T14:55:31;7.28;;;4.80;;
17564;SDS011;62994;52.126;5.596;2022-11-18T14:58:15;6.20;;;5.53;;
17564;SDS011;62994;52.126;5.596;2022-11-18T15:00:45;5.75;;;4.50;;
17564;SDS011;62994;52.126;5.596;2022-11-18T15:03:15;6.20;;;4.78;;
17564;SDS011;62994;52.126;5.596;2022-11-18T15:05:44;5.63;;;4.70;;
17564;SDS011;62994;52.126;5.596;2022-11-18T15:08:12;5.85;;;5.30;;
17564;SDS011;62994;52.126;5.596;2022-11-18T15:10:40;6.70;;;4.72;;
17564;SDS011;62994;52.126;5.596;2022-11-18T15:13:09;5.68;;;5.18;;
17564;SDS011;62994;52.126;5.596;2022-11-18T15:15:38;6.72;;;5.63;;
17564;SDS011;62994;52.126;5.596;2022-11-18T15:18:13;6.60;;;5.95;;
17564;SDS011;62994;52.126;5.596;2022-11-18T15:20:45;7.32;;;5.38;;
17564;SDS011;62994;52.126;5.596;2022-11-18T15:23:16;9.82;;;6.03;;
17564;SDS011;62994;52.126;5.596;2022-11-18T15:25:48;6.82;;;6.07;;
17564;SDS011;62994;52.126;5.596;2022-11-18T15:28:15;8.80;;;6.60;;
17564;SDS011;62994;52.126;5.596;2022-11-18T15:30:42;6.72;;;6.20;;
17564;SDS011;62994;52.126;5.596;2022-11-18T15:33:21;7.97;;;7.00;;
17564;SDS011;62994;52.126;5.596;2022-11-18T15:35:50;7.38;;;6.70;;
17564;SDS011;62994;52.126;5.596;2022-11-18T15:38:18;19.67;;;6.38;;
17564;SDS011;62994;52.126;5.596;2022-11-18T15:40:45;8.25;;;6.28;;
17564;SDS011;62994;52.126;5.596;2022-11-18T15:43:19;8.82;;;6.68;;